Time;durP1;ratioP1;P1;durP2;ratioP2;P2;SDS_P1;SDS_P2;PMS_P1;PMS_P2;Temp;Humidity;BMP_temperature;BMP_pressure;BME280_temperature;BME280_humidity;BME280_pressure;Samples;Min_cycle;Max_cycle;Signal;HPM_P1;HPM_P2
2022/11/13 00:02:25;;;;;;;13.98;9.48;;;;;;;;;;5030809;28;20075;-75
2022/11/13 00:05:09;;;;;;;14.98;9.70;;;;;;;;;;5028949;28;20418;-75
2022/11/13 00:07:54;;;;;;;16.25;10.05;;;;;;;;;;5028958;28;20130;-74
2022/11/13 00:10:38;;;;;;;15.20;9.40;;;;;;;;;;5031039;28;20044;-74
2022/11/13 00:13:23;;;;;;;14.00;8.82;;;;;;;;;;5025274;28;23016;-76
2022/11/13 00:16:11;;;;;;;15.88;10.65;;;;;;;;;;5011019;28;20068;-74
2022/11/13 00:18:55;;;;;;;16.15;9.85;;;;;;;;;;5023880;28;20053;-74
2022/11/13 00:21:40;;;;;;;14.50;9.77;;;;;;;;;;5028833;28;20087;-74
2022/11/13 00:24:24;;;;;;;15.85;9.77;;;;;;;;;;5030124;28;20056;-74
2022/11/13 00:27:09;;;;;;;16.35;10.20;;;;;;;;;;5030408;28;20138;-74
2022/11/13 00:29:53;;;;;;;14.85;9.23;;;;;;;;;;5031807;28;20064;-74
2022/11/13 00:32:38;;;;;;;13.90;8.45;;;;;;;;;;5029814;28;20125;-75
2022/11/13 00:35:23;;;;;;;13.32;9.07;;;;;;;;;;5025063;28;20088;-73
2022/11/13 00:38:07;;;;;;;12.15;8.23;;;;;;;;;;5028601;28;20113;-74
2022/11/13 00:40:52;;;;;;;14.68;9.25;;;;;;;;;;5027208;28;20407;-74
2022/11/13 00:43:37;;;;;;;14.93;8.50;;;;;;;;;;5026308;28;20075;-74
2022/11/13 00:46:21;;;;;;;15.23;9.50;;;;;;;;;;5027582;28;20107;-74
2022/11/13 00:49:06;;;;;;;13.93;8.63;;;;;;;;;;5025201;28;20072;-74
2022/11/13 00:51:50;;;;;;;11.43;8.07;;;;;;;;;;5032018;28;20465;-74
2022/11/13 00:54:34;;;;;;;13.27;8.27;;;;;;;;;;5027231;28;20144;-74
2022/11/13 00:57:19;;;;;;;13.02;8.50;;;;;;;;;;5030821;28;20060;-74
2022/11/13 01:00:04;;;;;;;14.63;8.80;;;;;;;;;;5029907;28;20040;-73
2022/11/13 01:02:49;;;;;;;14.18;8.77;;;;;;;;;;5017040;28;20109;-74
2022/11/13 01:05:39;;;;;;;12.43;8.02;;;;;;;;;;5015564;28;20552;-74
2022/11/13 01:08:23;;;;;;;12.95;8.38;;;;;;;;;;5032063;28;20414;-74
2022/11/13 01:11:10;;;;;;;12.98;8.70;;;;;;;;;;5027030;28;20060;-74
2022/11/13 01:13:56;;;;;;;12.65;8.60;;;;;;;;;;5025810;28;20129;-74
2022/11/13 01:16:40;;;;;;;12.85;8.77;;;;;;;;;;5029353;28;20064;-73
2022/11/13 01:19:25;;;;;;;12.70;7.82;;;;;;;;;;5028526;28;20457;-74
2022/11/13 01:22:10;;;;;;;12.25;8.63;;;;;;;;;;5029938;28;20419;-74
2022/11/13 01:24:54;;;;;;;11.77;7.65;;;;;;;;;;5030270;28;20111;-74
2022/11/13 01:27:39;;;;;;;12.10;7.75;;;;;;;;;;5031938;28;20047;-73
2022/11/13 01:30:23;;;;;;;10.82;7.35;;;;;;;;;;5031476;28;20106;-74
2022/11/13 01:33:07;;;;;;;12.50;8.02;;;;;;;;;;5031032;28;20474;-74
2022/11/13 01:35:52;;;;;;;13.18;8.10;;;;;;;;;;5031007;28;20501;-74
2022/11/13 01:38:37;;;;;;;12.10;6.93;;;;;;;;;;5031493;28;20517;-74
2022/11/13 01:41:28;;;;;;;10.43;7.97;;;;;;;;;;5027427;28;20071;-75
2022/11/13 01:44:15;;;;;;;9.75;7.18;;;;;;;;;;5030366;28;20125;-74
2022/11/13 01:47:00;;;;;;;11.07;7.13;;;;;;;;;;5030714;28;20517;-75
2022/11/13 01:49:45;;;;;;;9.82;6.97;;;;;;;;;;5029960;28;20048;-75
2022/11/13 01:52:34;;;;;;;10.88;7.45;;;;;;;;;;5031206;28;20068;-74
2022/11/13 01:55:19;;;;;;;11.45;7.40;;;;;;;;;;5031013;28;20045;-74
2022/11/13 01:58:07;;;;;;;10.38;7.03;;;;;;;;;;5026493;28;20076;-74
2022/11/13 02:00:52;;;;;;;11.02;7.18;;;;;;;;;;5034298;28;20056;-74
2022/11/13 02:03:36;;;;;;;11.00;7.40;;;;;;;;;;5028988;28;20069;-73
2022/11/13 02:06:20;;;;;;;11.18;7.75;;;;;;;;;;5034677;28;20475;-75
2022/11/13 02:09:06;;;;;;;11.75;7.97;;;;;;;;;;5034881;28;20056;-74
2022/11/13 02:11:51;;;;;;;10.73;7.47;;;;;;;;;;5035030;28;20510;-74
2022/11/13 02:14:40;;;;;;;9.77;7.13;;;;;;;;;;5028898;28;20045;-74
2022/11/13 02:17:33;;;;;;;10.75;7.18;;;;;;;;;;5028639;28;20094;-74
2022/11/13 02:20:30;;;;;;;11.05;7.20;;;;;;;;;;5033269;28;20104;-75
2022/11/13 02:23:38;;;;;;;10.13;7.07;;;;;;;;;;5033576;28;20052;-74
2022/11/13 02:26:25;;;;;;;10.15;6.32;;;;;;;;;;5030458;28;20050;-74
2022/11/13 02:29:09;;;;;;;8.73;6.38;;;;;;;;;;5032610;28;20048;-74
2022/11/13 02:31:54;;;;;;;11.15;6.78;;;;;;;;;;5017103;28;20410;-73
2022/11/13 02:34:39;;;;;;;9.32;6.40;;;;;;;;;;5031379;28;20552;-75
2022/11/13 02:37:23;;;;;;;10.57;6.70;;;;;;;;;;5028538;28;20407;-73
2022/11/13 02:40:08;;;;;;;8.45;5.57;;;;;;;;;;5033300;28;20048;-74
2022/11/13 02:42:53;;;;;;;10.25;7.03;;;;;;;;;;5011230;28;20095;-74
2022/11/13 02:45:37;;;;;;;8.45;6.00;;;;;;;;;;5027679;28;20088;-75
2022/11/13 02:48:22;;;;;;;8.85;5.93;;;;;;;;;;5033470;28;20052;-75
2022/11/13 02:51:06;;;;;;;8.95;6.18;;;;;;;;;;5030861;28;20040;-75
2022/11/13 02:53:51;;;;;;;10.80;6.93;;;;;;;;;;5025412;28;20099;-75
2022/11/13 02:56:35;;;;;;;8.95;6.15;;;;;;;;;;5031688;28;20087;-74
2022/11/13 02:59:20;;;;;;;8.45;6.00;;;;;;;;;;5030624;28;20088;-74
2022/11/13 03:02:05;;;;;;;10.40;7.43;;;;;;;;;;5024877;28;20055;-74
2022/11/13 03:04:49;;;;;;;8.52;6.13;;;;;;;;;;5032779;28;20076;-74
2022/11/13 03:07:33;;;;;;;8.68;6.50;;;;;;;;;;5032877;28;20064;-74
2022/11/13 03:10:18;;;;;;;9.55;5.97;;;;;;;;;;5033164;28;20407;-73
2022/11/13 03:13:02;;;;;;;8.85;6.55;;;;;;;;;;5026104;28;20086;-74
2022/11/13 03:15:47;;;;;;;10.23;6.53;;;;;;;;;;5025274;28;20098;-74
2022/11/13 03:18:31;;;;;;;10.93;6.45;;;;;;;;;;5030078;28;20449;-74
2022/11/13 03:21:15;;;;;;;8.95;6.88;;;;;;;;;;5030549;28;20569;-73
2022/11/13 03:24:00;;;;;;;9.13;6.38;;;;;;;;;;5033925;28;20102;-75
2022/11/13 03:26:45;;;;;;;11.35;6.78;;;;;;;;;;5030803;28;20044;-74
2022/11/13 03:29:29;;;;;;;9.05;6.43;;;;;;;;;;5030143;28;20099;-74
2022/11/13 03:32:13;;;;;;;8.70;6.68;;;;;;;;;;5015728;28;20068;-75
2022/11/13 03:34:58;;;;;;;9.38;6.07;;;;;;;;;;5027542;28;20095;-76
2022/11/13 03:37:42;;;;;;;8.05;5.82;;;;;;;;;;5027114;28;20076;-75
2022/11/13 03:40:27;;;;;;;9.77;5.75;;;;;;;;;;5028180;28;20053;-74
2022/11/13 03:43:11;;;;;;;8.23;5.88;;;;;;;;;;5031816;28;20052;-74
2022/11/13 03:45:56;;;;;;;8.73;6.40;;;;;;;;;;5025831;28;20052;-75
2022/11/13 03:48:41;;;;;;;8.75;5.85;;;;;;;;;;5014570;28;20098;-74
2022/11/13 03:51:25;;;;;;;8.80;5.57;;;;;;;;;;5015943;28;20548;-74
2022/11/13 03:54:10;;;;;;;10.65;6.22;;;;;;;;;;5014964;28;20092;-74
2022/11/13 03:56:54;;;;;;;7.55;5.68;;;;;;;;;;5029531;28;20064;-73
2022/11/13 03:59:39;;;;;;;7.35;5.50;;;;;;;;;;5029084;28;20044;-74
2022/11/13 04:02:23;;;;;;;10.10;6.43;;;;;;;;;;5028592;28;20071;-73
2022/11/13 04:05:08;;;;;;;8.93;5.65;;;;;;;;;;5017906;28;20043;-73
2022/11/13 04:07:53;;;;;;;9.57;5.97;;;;;;;;;;5028577;28;20106;-74
2022/11/13 04:10:38;;;;;;;7.82;5.65;;;;;;;;;;5010780;28;20037;-74
2022/11/13 04:13:22;;;;;;;9.88;6.20;;;;;;;;;;5025736;28;20051;-74
2022/11/13 04:16:07;;;;;;;8.25;6.28;;;;;;;;;;5030501;28;20100;-74
2022/11/13 04:18:51;;;;;;;8.68;5.65;;;;;;;;;;5009779;28;20059;-74
2022/11/13 04:21:35;;;;;;;8.07;5.55;;;;;;;;;;5025701;28;20129;-74
2022/11/13 04:24:20;;;;;;;7.97;5.47;;;;;;;;;;5026238;28;20543;-74
2022/11/13 04:27:04;;;;;;;7.68;5.10;;;;;;;;;;5026933;28;20429;-75
2022/11/13 04:29:49;;;;;;;8.38;5.90;;;;;;;;;;5025706;28;20041;-74
2022/11/13 04:32:33;;;;;;;8.05;5.60;;;;;;;;;;5008182;28;20119;-74
2022/11/13 04:35:18;;;;;;;7.85;5.60;;;;;;;;;;5019060;28;20087;-74
2022/11/13 04:38:02;;;;;;;7.55;5.72;;;;;;;;;;5028275;28;20048;-74
2022/11/13 04:42:47;;;;;;;10.93;5.60;;;;;;;;;;5032480;28;20041;-74
2022/11/13 04:43:55;;;;;;;7.70;5.47;;;;;;;;;;5026878;28;20121;-74
2022/11/13 04:46:39;;;;;;;8.70;5.50;;;;;;;;;;5023972;28;20576;-74
2022/11/13 04:49:24;;;;;;;9.43;6.53;;;;;;;;;;5028928;28;20513;-74
2022/11/13 04:52:09;;;;;;;10.48;6.60;;;;;;;;;;5030894;28;20051;-74
2022/11/13 04:54:54;;;;;;;11.05;6.88;;;;;;;;;;5013071;28;20056;-74
2022/11/13 04:57:39;;;;;;;10.27;6.90;;;;;;;;;;5020919;28;20061;-73
2022/11/13 05:00:23;;;;;;;9.57;6.63;;;;;;;;;;5011551;28;20076;-73
2022/11/13 05:03:08;;;;;;;9.05;6.47;;;;;;;;;;5022260;28;20056;-75
2022/11/13 05:05:52;;;;;;;9.68;6.70;;;;;;;;;;5030951;28;20112;-74
2022/11/13 05:08:38;;;;;;;12.20;7.20;;;;;;;;;;5029568;28;20040;-74
2022/11/13 05:11:22;;;;;;;8.20;6.03;;;;;;;;;;5030166;28;20461;-73
2022/11/13 05:14:09;;;;;;;10.15;6.25;;;;;;;;;;5031712;28;20049;-74
2022/11/13 05:16:54;;;;;;;10.82;7.43;;;;;;;;;;5018202;28;20060;-74
2022/11/13 05:19:38;;;;;;;8.80;6.47;;;;;;;;;;5028192;28;20053;-74
2022/11/13 05:22:23;;;;;;;8.88;6.18;;;;;;;;;;5028122;28;20095;-74
2022/11/13 05:25:07;;;;;;;8.55;6.60;;;;;;;;;;5029698;28;20044;-75
2022/11/13 05:27:52;;;;;;;11.68;7.35;;;;;;;;;;5009564;28;20049;-75
2022/11/13 05:30:37;;;;;;;10.65;7.03;;;;;;;;;;5006794;28;20068;-75
2022/11/13 05:33:21;;;;;;;9.65;6.95;;;;;;;;;;4992361;28;20549;-75
2022/11/13 05:36:08;;;;;;;8.90;6.53;;;;;;;;;;5011082;28;20056;-75
2022/11/13 05:38:53;;;;;;;11.10;7.40;;;;;;;;;;5006926;28;20050;-74
2022/11/13 05:41:37;;;;;;;11.95;8.02;;;;;;;;;;5008634;28;20049;-74
2022/11/13 05:44:22;;;;;;;12.27;7.70;;;;;;;;;;5010821;28;20053;-73
2022/11/13 05:47:06;;;;;;;11.93;7.80;;;;;;;;;;5011342;28;20100;-74
2022/11/13 05:49:50;;;;;;;11.57;7.38;;;;;;;;;;5006836;28;20152;-74
2022/11/13 05:52:35;;;;;;;10.20;8.02;;;;;;;;;;5012604;28;20754;-74
2022/11/13 05:55:19;;;;;;;12.90;7.88;;;;;;;;;;5012630;28;20460;-74
2022/11/13 05:58:04;;;;;;;11.23;8.23;;;;;;;;;;5009723;28;20108;-74
2022/11/13 06:00:48;;;;;;;11.80;7.93;;;;;;;;;;5011462;28;20153;-74
2022/11/13 06:03:33;;;;;;;10.90;7.68;;;;;;;;;;5011376;28;20052;-73
2022/11/13 06:06:19;;;;;;;11.60;7.93;;;;;;;;;;5012008;28;20126;-73
2022/11/13 06:09:05;;;;;;;12.70;7.68;;;;;;;;;;5010439;28;20061;-73
2022/11/13 06:11:50;;;;;;;11.88;8.27;;;;;;;;;;5012794;28;20080;-73
2022/11/13 06:14:34;;;;;;;13.57;8.40;;;;;;;;;;5013118;28;20061;-75
2022/11/13 06:17:19;;;;;;;12.18;8.48;;;;;;;;;;5013476;28;20056;-74
2022/11/13 06:20:03;;;;;;;14.98;8.00;;;;;;;;;;4998090;28;20092;-74
2022/11/13 06:22:48;;;;;;;11.15;7.85;;;;;;;;;;5013917;28;20057;-74
2022/11/13 06:25:32;;;;;;;11.48;8.23;;;;;;;;;;5013598;28;20491;-74
2022/11/13 06:28:17;;;;;;;12.38;8.27;;;;;;;;;;5013250;28;20057;-74
2022/11/13 06:31:12;;;;;;;13.50;8.57;;;;;;;;;;5009127;28;20108;-74
2022/11/13 06:33:58;;;;;;;13.65;8.77;;;;;;;;;;4997189;28;20045;-74
2022/11/13 06:36:42;;;;;;;12.25;8.75;;;;;;;;;;5009289;28;20053;-74
2022/11/13 06:39:26;;;;;;;12.13;8.68;;;;;;;;;;5010128;28;20047;-75
2022/11/13 06:42:11;;;;;;;12.75;8.88;;;;;;;;;;5010658;28;20048;-74
2022/11/13 06:44:55;;;;;;;12.68;8.38;;;;;;;;;;5010036;28;20052;-75
2022/11/13 06:47:40;;;;;;;13.45;9.38;;;;;;;;;;5005938;28;20502;-75
2022/11/13 06:50:24;;;;;;;14.45;9.98;;;;;;;;;;5015681;28;20045;-75
2022/11/13 06:53:09;;;;;;;15.05;9.75;;;;;;;;;;5014429;28;20411;-74
2022/11/13 06:55:54;;;;;;;14.35;9.77;;;;;;;;;;5015055;28;20044;-74
2022/11/13 06:58:38;;;;;;;14.60;9.73;;;;;;;;;;4994638;28;20101;-74
2022/11/13 07:01:25;;;;;;;15.40;10.18;;;;;;;;;;4993755;28;20100;-73
2022/11/13 07:04:11;;;;;;;13.30;9.27;;;;;;;;;;4992402;28;20161;-74
2022/11/13 07:06:56;;;;;;;12.77;8.73;;;;;;;;;;4995622;28;20053;-75
2022/11/13 07:09:40;;;;;;;14.35;9.40;;;;;;;;;;4992544;28;20092;-75
2022/11/13 07:12:27;;;;;;;13.80;9.80;;;;;;;;;;4992863;28;20136;-74
2022/11/13 07:15:11;;;;;;;13.40;9.48;;;;;;;;;;4991110;28;20098;-72
2022/11/13 07:17:59;;;;;;;16.45;10.00;;;;;;;;;;4977061;28;20049;-75
2022/11/13 07:20:44;;;;;;;15.68;9.77;;;;;;;;;;4987427;28;20050;-75
2022/11/13 07:23:28;;;;;;;14.48;10.15;;;;;;;;;;4986234;28;20052;-75
2022/11/13 07:26:13;;;;;;;17.35;10.90;;;;;;;;;;4988606;28;20057;-75
2022/11/13 07:28:58;;;;;;;15.20;10.38;;;;;;;;;;4989373;28;20097;-75
2022/11/13 07:31:42;;;;;;;16.73;10.80;;;;;;;;;;4991718;28;20049;-75
2022/11/13 07:34:27;;;;;;;14.85;9.50;;;;;;;;;;4993831;28;20057;-75
2022/11/13 07:37:12;;;;;;;17.02;11.57;;;;;;;;;;4985347;28;20519;-75
2022/11/13 07:39:56;;;;;;;14.60;10.80;;;;;;;;;;4993364;28;20052;-76
2022/11/13 07:42:41;;;;;;;17.27;10.57;;;;;;;;;;4990166;28;20112;-75
2022/11/13 07:45:29;;;;;;;14.65;10.68;;;;;;;;;;4988947;28;20073;-75
2022/11/13 07:48:15;;;;;;;15.27;11.13;;;;;;;;;;4989843;28;20100;-75
2022/11/13 07:51:01;;;;;;;19.92;11.57;;;;;;;;;;4990674;28;20416;-75
2022/11/13 07:53:45;;;;;;;15.52;10.77;;;;;;;;;;4990574;28;20181;-74
2022/11/13 07:56:30;;;;;;;19.38;13.98;;;;;;;;;;4987762;28;20052;-75
2022/11/13 07:59:14;;;;;;;23.63;13.30;;;;;;;;;;4985658;28;20370;-73
2022/11/13 08:02:00;;;;;;;17.05;12.43;;;;;;;;;;4990351;28;20053;-74
2022/11/13 08:04:44;;;;;;;19.73;12.65;;;;;;;;;;4985183;28;20045;-74
2022/11/13 08:07:29;;;;;;;19.83;14.52;;;;;;;;;;4994298;28;20423;-75
2022/11/13 08:10:15;;;;;;;21.08;13.20;;;;;;;;;;4988590;28;20042;-75
2022/11/13 08:13:04;;;;;;;15.98;11.85;;;;;;;;;;4989405;28;20038;-75
2022/11/13 08:15:49;;;;;;;20.00;12.20;;;;;;;;;;4986938;28;20061;-75
2022/11/13 08:18:33;;;;;;;18.50;12.38;;;;;;;;;;4980084;28;20404;-75
2022/11/13 08:21:20;;;;;;;16.23;12.25;;;;;;;;;;4992199;28;20061;-75
2022/11/13 08:24:05;;;;;;;19.42;12.25;;;;;;;;;;4987443;28;20111;-76
2022/11/13 08:26:49;;;;;;;21.17;14.40;;;;;;;;;;4988041;28;20503;-75
2022/11/13 08:29:36;;;;;;;23.38;12.25;;;;;;;;;;4991794;28;20462;-75
2022/11/13 08:32:21;;;;;;;18.67;11.10;;;;;;;;;;4989051;28;20053;-75
2022/11/13 08:35:05;;;;;;;19.23;11.50;;;;;;;;;;4989955;28;20093;-75
2022/11/13 08:37:51;;;;;;;27.42;12.75;;;;;;;;;;4989942;28;20052;-76
2022/11/13 08:40:36;;;;;;;17.80;12.13;;;;;;;;;;4993040;28;20046;-75
2022/11/13 08:43:20;;;;;;;18.90;12.13;;;;;;;;;;4992954;28;20053;-75
2022/11/13 08:46:05;;;;;;;22.75;12.07;;;;;;;;;;4988359;28;20088;-75
2022/11/13 08:48:49;;;;;;;18.65;10.82;;;;;;;;;;4988559;28;20072;-76
2022/11/13 08:51:34;;;;;;;37.40;20.58;;;;;;;;;;4979619;28;20048;-74
2022/11/13 08:54:19;;;;;;;21.88;14.10;;;;;;;;;;4994391;28;20464;-75
2022/11/13 08:57:04;;;;;;;15.60;10.25;;;;;;;;;;4983974;28;20053;-76
2022/11/13 08:59:49;;;;;;;16.05;9.43;;;;;;;;;;4999049;28;20174;-74
2022/11/13 09:02:33;;;;;;;30.58;12.65;;;;;;;;;;5013849;28;20431;-76
2022/11/13 09:05:18;;;;;;;22.45;12.15;;;;;;;;;;5013946;28;20526;-76
2022/11/13 09:08:03;;;;;;;32.85;12.50;;;;;;;;;;5004945;28;20080;-75
2022/11/13 09:10:47;;;;;;;20.40;11.15;;;;;;;;;;4994263;28;20542;-75
2022/11/13 09:13:33;;;;;;;18.70;11.10;;;;;;;;;;4994433;28;20554;-74
2022/11/13 09:16:17;;;;;;;30.13;12.82;;;;;;;;;;4995268;28;20049;-75
2022/11/13 09:19:03;;;;;;;15.90;10.80;;;;;;;;;;4994617;28;20080;-76
2022/11/13 09:21:47;;;;;;;17.35;11.25;;;;;;;;;;5006941;28;20546;-75
2022/11/13 09:24:32;;;;;;;18.00;11.65;;;;;;;;;;4993498;28;20045;-75
2022/11/13 09:27:17;;;;;;;18.52;12.63;;;;;;;;;;4993636;28;20118;-75
2022/11/13 09:30:01;;;;;;;19.77;11.13;;;;;;;;;;4996119;28;20049;-74
2022/11/13 09:32:46;;;;;;;21.80;12.65;;;;;;;;;;4996355;28;20088;-74
2022/11/13 09:35:34;;;;;;;23.08;13.50;;;;;;;;;;5000216;28;20096;-75
2022/11/13 09:38:19;;;;;;;18.63;13.57;;;;;;;;;;4994283;28;20510;-76
2022/11/13 09:41:13;;;;;;;18.38;11.68;;;;;;;;;;4993503;28;20583;-75
2022/11/13 09:44:05;;;;;;;16.50;11.35;;;;;;;;;;4979507;28;20455;-75
2022/11/13 09:46:55;;;;;;;19.98;13.52;;;;;;;;;;4993255;28;20117;-74
2022/11/13 09:49:46;;;;;;;21.88;13.65;;;;;;;;;;5006109;28;20084;-75
2022/11/13 09:52:36;;;;;;;19.48;13.18;;;;;;;;;;5013518;28;20092;-76
2022/11/13 09:55:30;;;;;;;20.98;13.73;;;;;;;;;;5014766;28;20526;-75
2022/11/13 09:58:20;;;;;;;;;;;;;;;;;;5013173;28;20438;-76
2022/11/13 10:01:13;;;;;;;20.10;13.85;;;;;;;;;;5000828;28;19940;-76
2022/11/13 10:04:42;;;;;;;24.37;16.70;;;;;;;;;;4995383;28;20526;-75
2022/11/13 10:07:40;;;;;;;19.67;13.27;;;;;;;;;;4996880;28;20788;-74
2022/11/13 10:10:52;;;;;;;20.80;14.18;;;;;;;;;;5010852;28;20053;-77
2022/11/13 10:22:50;;;;;;;21.50;15.35;;;;;;;;;;5015499;28;20140;-75
2022/11/13 10:25:37;;;;;;;22.92;14.88;;;;;;;;;;5013978;28;20493;-74
2022/11/13 10:28:25;;;;;;;25.80;15.82;;;;;;;;;;5015446;28;20092;-76
2022/11/13 10:31:11;;;;;;;28.45;17.80;;;;;;;;;;5000809;28;20057;-74
2022/11/13 10:33:56;;;;;;;22.08;14.60;;;;;;;;;;5013131;28;20119;-74
2022/11/13 10:36:59;;;;;;;17.85;12.07;;;;;;;;;;5005744;28;20506;-74
2022/11/13 10:39:44;;;;;;;17.17;12.20;;;;;;;;;;5014856;28;20100;-75
2022/11/13 10:42:40;;;;;;;21.70;13.75;;;;;;;;;;5012832;28;20051;-76
2022/11/13 10:45:24;;;;;;;21.75;14.10;;;;;;;;;;5004116;28;20410;-74
2022/11/13 10:48:26;;;;;;;20.27;14.45;;;;;;;;;;5015206;28;20155;-76
2022/11/13 10:51:28;;;;;;;23.75;16.60;;;;;;;;;;5014438;28;20084;-74
2022/11/13 10:54:32;;;;;;;24.52;16.80;;;;;;;;;;5015121;28;20177;-75
2022/11/13 10:57:34;;;;;;;25.40;17.63;;;;;;;;;;5014370;28;20100;-75
2022/11/13 11:00:24;;;;;;;28.85;17.42;;;;;;;;;;5015474;28;20110;-74
2022/11/13 11:03:14;;;;;;;28.17;18.27;;;;;;;;;;5014543;28;20112;-75
2022/11/13 11:06:02;;;;;;;29.08;18.85;;;;;;;;;;5015368;28;20100;-75
2022/11/13 11:08:48;;;;;;;25.73;16.00;;;;;;;;;;5015042;28;20081;-75
2022/11/13 11:14:56;;;;;;;24.33;16.42;;;;;;;;;;5014855;28;20069;-75
2022/11/13 11:18:00;;;;;;;20.60;14.15;;;;;;;;;;5014605;28;20084;-75
2022/11/13 11:20:50;;;;;;;20.27;14.20;;;;;;;;;;5015856;28;20100;-75
2022/11/13 11:23:43;;;;;;;24.63;16.58;;;;;;;;;;5015228;28;20095;-76
2022/11/13 11:26:52;;;;;;;25.48;17.05;;;;;;;;;;5015446;28;20119;-76
2022/11/13 11:30:09;;;;;;;23.52;15.30;;;;;;;;;;5014764;28;20092;-75
2022/11/13 11:33:16;;;;;;;23.50;15.30;;;;;;;;;;4988444;28;20517;-77
2022/11/13 11:36:24;;;;;;;28.17;16.98;;;;;;;;;;5016593;28;20053;-74
2022/11/13 11:39:17;;;;;;;34.03;21.90;;;;;;;;;;5014260;28;20407;-74
2022/11/13 11:42:39;;;;;;;24.45;16.00;;;;;;;;;;5014129;28;20044;-75
2022/11/13 11:45:39;;;;;;;25.85;15.40;;;;;;;;;;5013752;28;20057;-75
2022/11/13 11:48:29;;;;;;;26.75;16.42;;;;;;;;;;5014577;28;20092;-75
2022/11/13 11:51:17;;;;;;;22.35;14.20;;;;;;;;;;5013551;28;20041;-75
2022/11/13 11:54:13;;;;;;;26.45;16.88;;;;;;;;;;5014570;28;20091;-75
2022/11/13 11:57:12;;;;;;;41.63;22.65;;;;;;;;;;5014201;28;20061;-75
2022/11/13 12:00:32;;;;;;;29.55;17.55;;;;;;;;;;5015267;28;20457;-75
2022/11/13 12:03:44;;;;;;;34.03;20.15;;;;;;;;;;5013089;28;20104;-74
2022/11/13 12:06:43;;;;;;;42.72;21.27;;;;;;;;;;5014082;28;20108;-75
2022/11/13 12:09:32;;;;;;;35.45;21.58;;;;;;;;;;5015729;28;20116;-74
2022/11/13 12:12:42;;;;;;;31.83;19.58;;;;;;;;;;5015020;28;20053;-74
2022/11/13 12:15:49;;;;;;;28.17;18.75;;;;;;;;;;5014716;28;20080;-75
2022/11/13 12:18:56;;;;;;;36.45;21.52;;;;;;;;;;5012834;28;20055;-75
2022/11/13 12:22:07;;;;;;;26.85;18.85;;;;;;;;;;5013746;28;20096;-75
2022/11/13 12:25:16;;;;;;;28.92;19.23;;;;;;;;;;5013361;28;20288;-74
2022/11/13 12:28:24;;;;;;;29.08;19.58;;;;;;;;;;5013449;28;20111;-75
2022/11/13 12:31:38;;;;;;;24.98;16.20;;;;;;;;;;5013273;28;20057;-73
2022/11/13 12:34:22;;;;;;;22.30;13.95;;;;;;;;;;5012799;28;20044;-75
2022/11/13 12:37:13;;;;;;;24.40;16.45;;;;;;;;;;5013829;28;20104;-74
2022/11/13 12:40:28;;;;;;;21.88;14.30;;;;;;;;;;5012651;28;20049;-75
2022/11/13 12:44:02;;;;;;;23.85;14.07;;;;;;;;;;5012611;28;20065;-75
2022/11/13 12:46:48;;;;;;;28.15;16.55;;;;;;;;;;4952413;28;20161;-73
2022/11/13 12:49:34;;;;;;;59.45;33.58;;;;;;;;;;5013139;28;20204;-74
2022/11/13 12:52:22;;;;;;;38.45;21.08;;;;;;;;;;5013101;28;20076;-75
2022/11/13 12:55:27;;;;;;;33.30;20.80;;;;;;;;;;5013178;28;20637;-75
2022/11/13 12:58:23;;;;;;;32.15;20.20;;;;;;;;;;5014100;28;20053;-75
2022/11/13 13:01:18;;;;;;;28.60;18.08;;;;;;;;;;5013310;28;20036;-75
2022/11/13 13:04:11;;;;;;;30.10;17.83;;;;;;;;;;5013453;28;20060;-75
2022/11/13 13:07:33;;;;;;;29.23;19.67;;;;;;;;;;5013950;28;20082;-75
2022/11/13 13:10:30;;;;;;;34.20;20.70;;;;;;;;;;5011957;28;20112;-75
2022/11/13 13:13:41;;;;;;;30.88;20.55;;;;;;;;;;5014136;28;20108;-77
2022/11/13 13:16:28;;;;;;;37.00;20.73;;;;;;;;;;5013252;28;20130;-76
2022/11/13 13:19:33;;;;;;;31.33;19.27;;;;;;;;;;5013956;28;20076;-74
2022/11/13 13:22:30;;;;;;;33.15;20.08;;;;;;;;;;5013927;28;20057;-75
2022/11/13 13:25:28;;;;;;;29.40;20.25;;;;;;;;;;5012842;28;20073;-76
2022/11/13 13:28:20;;;;;;;28.95;19.33;;;;;;;;;;5013153;28;20100;-74
2022/11/13 13:31:42;;;;;;;38.15;19.63;;;;;;;;;;5011108;28;20049;-74
2022/11/13 13:34:42;;;;;;;32.60;20.23;;;;;;;;;;4952181;29;20122;-74
2022/11/13 13:38:02;;;;;;;38.97;21.35;;;;;;;;;;4952530;29;20049;-77
2022/11/13 13:41:34;;;;;;;34.67;20.85;;;;;;;;;;4972238;28;20435;-75
2022/11/13 13:44:36;;;;;;;39.00;21.63;;;;;;;;;;5013202;28;20087;-74
2022/11/13 13:47:32;;;;;;;36.60;20.67;;;;;;;;;;5012555;28;20087;-76
2022/11/13 13:50:23;;;;;;;36.53;23.08;;;;;;;;;;5012018;28;20049;-76
2022/11/13 13:53:11;;;;;;;38.10;23.02;;;;;;;;;;5011444;28;20395;-76
2022/11/13 13:55:58;;;;;;;36.83;21.92;;;;;;;;;;5012571;28;20048;-76
2022/11/13 13:58:42;;;;;;;42.78;25.10;;;;;;;;;;5011932;28;20099;-75
2022/11/13 14:01:32;;;;;;;41.50;25.40;;;;;;;;;;5011764;28;20044;-76
2022/11/13 14:04:19;;;;;;;46.38;26.42;;;;;;;;;;5012849;28;20111;-75
2022/11/13 14:07:17;;;;;;;58.00;32.08;;;;;;;;;;5012963;28;20084;-76
2022/11/13 14:10:11;;;;;;;46.05;26.85;;;;;;;;;;5011059;28;20557;-76
2022/11/13 14:12:56;;;;;;;;;;;;;;;;;;5013618;28;20107;-76
2022/11/13 14:15:40;;;;;;;43.97;26.35;;;;;;;;;;5012131;28;19920;-76
2022/11/13 14:18:25;;;;;;;43.53;26.75;;;;;;;;;;5013075;28;20505;-76
2022/11/13 14:21:20;;;;;;;44.67;25.88;;;;;;;;;;5013697;28;20080;-76
2022/11/13 14:24:15;;;;;;;44.00;28.73;;;;;;;;;;5013569;28;20119;-76
2022/11/13 14:27:06;;;;;;;42.88;25.73;;;;;;;;;;5012445;28;20514;-75
2022/11/13 14:29:57;;;;;;;42.78;23.63;;;;;;;;;;5013797;28;20096;-75
2022/11/13 14:32:42;;;;;;;42.72;25.08;;;;;;;;;;5014384;28;20096;-75
2022/11/13 14:35:27;;;;;;;41.20;25.45;;;;;;;;;;5014125;28;20135;-77
2022/11/13 14:38:21;;;;;;;40.92;24.10;;;;;;;;;;5013228;28;20052;-75
2022/11/13 14:41:17;;;;;;;34.70;21.67;;;;;;;;;;5014479;28;20162;-74
2022/11/13 14:44:02;;;;;;;40.58;24.05;;;;;;;;;;5014419;28;20052;-74
2022/11/13 14:47:02;;;;;;;38.65;23.58;;;;;;;;;;5013416;28;20064;-75
2022/11/13 14:49:46;;;;;;;47.80;27.88;;;;;;;;;;5013506;28;20052;-75
2022/11/13 14:52:31;;;;;;;46.53;25.80;;;;;;;;;;5012640;28;20065;-76
2022/11/13 14:55:22;;;;;;;44.80;26.80;;;;;;;;;;5011709;28;20108;-76
2022/11/13 14:58:11;;;;;;;49.45;29.13;;;;;;;;;;5012328;28;20067;-74
2022/11/13 15:00:57;;;;;;;44.72;27.02;;;;;;;;;;5010969;28;20041;-75
2022/11/13 15:03:46;;;;;;;54.47;28.60;;;;;;;;;;5012427;28;20045;-75
2022/11/13 15:06:39;;;;;;;50.42;27.27;;;;;;;;;;5010727;28;20518;-74
2022/11/13 15:09:24;;;;;;;49.30;27.15;;;;;;;;;;5016007;28;20153;-76
2022/11/13 15:12:12;;;;;;;48.65;26.25;;;;;;;;;;5015052;28;20125;-75
2022/11/13 15:14:56;;;;;;;43.92;24.20;;;;;;;;;;5015432;28;20096;-75
2022/11/13 15:17:44;;;;;;;46.47;28.15;;;;;;;;;;5015773;28;20195;-75
2022/11/13 15:20:30;;;;;;;54.83;28.17;;;;;;;;;;5015513;28;20044;-76
2022/11/13 15:23:15;;;;;;;48.55;28.42;;;;;;;;;;5015101;28;20108;-75
2022/11/13 15:25:59;;;;;;;55.75;29.75;;;;;;;;;;5015949;28;20044;-74
2022/11/13 15:28:44;;;;;;;48.92;28.17;;;;;;;;;;4987269;28;20053;-77
2022/11/13 15:31:36;;;;;;;54.13;30.75;;;;;;;;;;5014831;28;20558;-75
2022/11/13 15:34:21;;;;;;;59.97;33.03;;;;;;;;;;5014637;28;20108;-75
2022/11/13 15:37:11;;;;;;;66.18;35.85;;;;;;;;;;5009477;28;20056;-76
2022/11/13 15:39:55;;;;;;;60.55;35.08;;;;;;;;;;5010024;28;20172;-75
2022/11/13 15:42:42;;;;;;;71.43;39.70;;;;;;;;;;5013098;28;20045;-75
2022/11/13 15:45:26;;;;;;;57.60;34.72;;;;;;;;;;5012804;28;20164;-75
2022/11/13 15:48:12;;;;;;;52.13;33.00;;;;;;;;;;5013451;28;20044;-75
2022/11/13 15:50:57;;;;;;;50.05;33.22;;;;;;;;;;5013878;28;20164;-75
2022/11/13 15:53:42;;;;;;;56.97;34.40;;;;;;;;;;4995625;28;20044;-74
2022/11/13 15:56:27;;;;;;;56.22;35.88;;;;;;;;;;5011655;28;20553;-75
2022/11/13 15:59:13;;;;;;;62.65;40.28;;;;;;;;;;5012168;28;20061;-75
2022/11/13 16:01:57;;;;;;;72.43;45.72;;;;;;;;;;5012866;28;20100;-75
2022/11/13 16:04:42;;;;;;;72.13;40.45;;;;;;;;;;5013496;28;20088;-75
2022/11/13 16:07:30;;;;;;;68.80;39.67;;;;;;;;;;5009839;28;20051;-74
2022/11/13 16:10:15;;;;;;;68.25;38.28;;;;;;;;;;5030166;28;20427;-73
2022/11/13 16:13:00;;;;;;;65.35;38.97;;;;;;;;;;5031768;28;20044;-75
2022/11/13 16:15:47;;;;;;;64.75;39.80;;;;;;;;;;5030842;28;20060;-75
2022/11/13 16:18:32;;;;;;;65.68;41.72;;;;;;;;;;5029207;28;20094;-74
2022/11/13 16:21:19;;;;;;;74.55;43.78;;;;;;;;;;5031485;28;20099;-74
2022/11/13 16:24:04;;;;;;;79.63;50.03;;;;;;;;;;5033513;28;20180;-75
2022/11/13 16:26:56;;;;;;;75.20;46.67;;;;;;;;;;5032754;28;20589;-75
2022/11/13 16:29:40;;;;;;;81.93;49.40;;;;;;;;;;5012555;28;20116;-75
2022/11/13 16:32:25;;;;;;;88.00;47.80;;;;;;;;;;5029966;28;20076;-75
2022/11/13 16:35:17;;;;;;;85.70;49.42;;;;;;;;;;5022869;28;20098;-76
2022/11/13 16:38:02;;;;;;;81.03;47.22;;;;;;;;;;5021350;28;20048;-76
2022/11/13 16:40:47;;;;;;;78.28;47.75;;;;;;;;;;5023618;28;20072;-75
2022/11/13 16:43:31;;;;;;;81.18;48.17;;;;;;;;;;5030412;28;20167;-76
2022/11/13 16:46:36;;;;;;;80.55;49.67;;;;;;;;;;5032338;28;20049;-74